createdAt,value
2018-09-21T00:00:00.330Z,7.08
2018-09-21T00:00:38.093Z,7.40
2018-09-21T00:01:11.597Z,7.50
2018-09-21T00:01:45.109Z,7.12
2018-09-21T00:02:18.645Z,7.58
2018-09-21T00:02:52.216Z,7.22
2018-09-21T00:03:25.767Z,7.67
2018-09-21T00:04:01.803Z,7.28
2018-09-21T00:04:35.327Z,7.17
2018-09-21T00:05:08.883Z,7.05
2018-09-21T00:05:42.416Z,7.17
2018-09-21T00:06:15.911Z,6.92
2018-09-21T00:06:49.518Z,7.20
2018-09-21T00:07:23.023Z,7.20
2018-09-21T00:07:56.551Z,7.20
2018-09-21T00:08:30.069Z,7.25
2018-09-21T00:09:05.631Z,6.95
2018-09-21T00:09:39.150Z,6.80
2018-09-21T00:10:12.664Z,7.20
2018-09-21T00:10:46.180Z,7.17
2018-09-21T00:11:19.737Z,7.10
2018-09-21T00:11:53.261Z,7.00
2018-09-21T00:12:26.781Z,7.20
2018-09-21T00:13:00.283Z,7.37
2018-09-21T00:13:33.751Z,7.05
2018-09-21T00:14:07.305Z,7.42
2018-09-21T00:14:40.790Z,7.92
2018-09-21T00:15:14.285Z,7.33
2018-09-21T00:15:47.799Z,7.10
2018-09-21T00:16:21.339Z,7.20
2018-09-21T00:16:54.849Z,6.87
2018-09-21T00:17:28.444Z,7.10
2018-09-21T00:18:01.976Z,7.40
2018-09-21T00:18:35.480Z,7.15
2018-09-21T00:19:09.006Z,7.35
2018-09-21T00:19:42.496Z,7.30
2018-09-21T00:20:16.038Z,7.42
2018-09-21T00:20:49.524Z,6.95
2018-09-21T00:21:23.023Z,6.90
2018-09-21T00:21:56.517Z,6.95
2018-09-21T00:22:30.041Z,7.25
2018-09-21T00:23:03.533Z,7.05
2018-09-21T00:23:37.215Z,7.08
2018-09-21T00:24:10.747Z,7.00
2018-09-21T00:24:44.274Z,6.87
2018-09-21T00:25:17.817Z,6.85
2018-09-21T00:25:51.317Z,6.72
2018-09-21T00:26:24.839Z,7.30
2018-09-21T00:26:58.319Z,7.45
2018-09-21T00:27:31.809Z,6.83
2018-09-21T00:28:05.359Z,7.03
2018-09-21T00:28:38.869Z,7.00
2018-09-21T00:29:12.372Z,6.97
2018-09-21T00:29:45.963Z,6.65
2018-09-21T00:30:19.479Z,7.17
2018-09-21T00:30:53.060Z,7.35
2018-09-21T00:31:26.578Z,6.65
2018-09-21T00:32:00.071Z,7.00
2018-09-21T00:32:33.561Z,7.03
2018-09-21T00:33:07.053Z,7.55
2018-09-21T00:33:40.586Z,7.05
2018-09-21T00:34:14.273Z,6.72
2018-09-21T00:34:47.751Z,6.90
2018-09-21T00:35:21.243Z,6.60
2018-09-21T00:35:54.760Z,6.85
2018-09-21T00:36:28.282Z,6.90
2018-09-21T00:37:01.768Z,7.05
2018-09-21T00:37:35.318Z,7.47
2018-09-21T00:38:08.825Z,6.80
2018-09-21T00:38:42.392Z,7.00
2018-09-21T00:39:15.918Z,7.10
2018-09-21T00:39:49.455Z,7.03
2018-09-21T00:40:23.050Z,6.80
2018-09-21T00:40:56.593Z,6.58
2018-09-21T00:41:30.110Z,6.85
2018-09-21T00:42:03.664Z,6.92
2018-09-21T00:42:37.200Z,6.80
2018-09-21T00:43:10.749Z,6.97
2018-09-21T00:43:44.253Z,6.87
2018-09-21T00:44:17.783Z,7.28
2018-09-21T00:44:51.289Z,6.97
2018-09-21T00:45:24.772Z,7.10
2018-09-21T00:45:58.296Z,6.80
2018-09-21T00:46:31.899Z,6.78
2018-09-21T00:47:05.637Z,6.87
2018-09-21T00:47:39.129Z,7.00
2018-09-21T00:48:12.684Z,6.70
2018-09-21T00:48:46.215Z,6.67
2018-09-21T00:49:19.811Z,6.60
2018-09-21T00:49:53.403Z,6.50
2018-09-21T00:50:26.956Z,7.00
2018-09-21T00:51:00.476Z,7.03
2018-09-21T00:51:34.031Z,7.00
2018-09-21T00:52:07.821Z,6.62
2018-09-21T00:52:41.348Z,7.40
2018-09-21T00:53:14.865Z,7.08
2018-09-21T00:53:48.430Z,6.95
2018-09-21T00:54:21.973Z,6.85
2018-09-21T00:54:55.467Z,6.90
2018-09-21T00:55:28.990Z,6.90
2018-09-21T00:56:02.524Z,6.80
2018-09-21T00:56:36.036Z,7.08
2018-09-21T00:57:09.501Z,6.80
2018-09-21T00:57:43.015Z,7.05
2018-09-21T00:58:16.509Z,6.92
2018-09-21T00:58:50.036Z,6.90
2018-09-21T00:59:23.562Z,6.70
2018-09-21T00:59:57.090Z,6.62
2018-09-21T01:00:30.688Z,6.58
2018-09-21T01:01:04.264Z,7.10
2018-09-21T01:01:37.768Z,7.00
2018-09-21T01:02:11.389Z,6.90
2018-09-21T01:02:44.925Z,6.80
2018-09-21T01:03:18.431Z,6.80
2018-09-21T01:03:51.947Z,6.97
2018-09-21T01:04:25.519Z,6.80
2018-09-21T01:04:59.025Z,6.60
2018-09-21T01:05:32.521Z,7.08
2018-09-21T01:06:06.075Z,6.85
2018-09-21T01:06:39.588Z,6.90
2018-09-21T01:07:14.182Z,7.30
2018-09-21T01:07:47.709Z,7.05
2018-09-21T01:08:21.205Z,6.70
2018-09-21T01:08:54.707Z,7.00
2018-09-21T01:09:28.227Z,6.75
2018-09-21T01:10:01.747Z,6.92
2018-09-21T01:10:35.252Z,7.17
2018-09-21T01:11:08.780Z,6.35
2018-09-21T01:11:42.303Z,6.72
2018-09-21T01:12:15.795Z,6.72
2018-09-21T01:12:49.380Z,6.60
2018-09-21T01:13:22.896Z,6.67
2018-09-21T01:13:56.384Z,7.28
2018-09-21T01:14:29.920Z,6.80
2018-09-21T01:15:03.526Z,7.22
2018-09-21T01:15:37.048Z,7.00
2018-09-21T01:16:10.608Z,6.80
2018-09-21T01:16:44.184Z,6.75
2018-09-21T01:17:17.697Z,6.90
2018-09-21T01:17:51.227Z,6.83
2018-09-21T01:18:24.710Z,6.80
2018-09-21T01:18:58.242Z,7.12
2018-09-21T01:19:31.757Z,6.65
2018-09-21T01:20:05.328Z,7.15
2018-09-21T01:20:38.812Z,7.00
2018-09-21T01:21:12.357Z,6.80
2018-09-21T01:21:45.862Z,6.92
2018-09-21T01:22:19.386Z,7.00
2018-09-21T01:22:52.945Z,7.25
2018-09-21T01:23:26.505Z,6.80
2018-09-21T01:24:00.022Z,6.87
2018-09-21T01:24:33.564Z,7.05
2018-09-21T01:25:07.054Z,6.80
2018-09-21T01:25:40.593Z,6.97
2018-09-21T01:26:14.130Z,6.80
2018-09-21T01:26:47.656Z,6.83
2018-09-21T01:27:21.179Z,6.70
2018-09-21T01:27:54.668Z,6.70
2018-09-21T01:28:28.217Z,6.90
2018-09-21T01:29:01.733Z,6.97
2018-09-21T01:29:35.239Z,7.25
2018-09-21T01:30:08.790Z,6.92
2018-09-21T01:30:42.346Z,6.60
2018-09-21T01:31:15.852Z,6.97
2018-09-21T01:31:49.366Z,6.50
2018-09-21T01:32:22.937Z,6.80
2018-09-21T01:32:56.432Z,7.17
2018-09-21T01:33:29.923Z,6.97
2018-09-21T01:34:03.462Z,6.45
2018-09-21T01:34:36.972Z,6.70
2018-09-21T01:35:10.451Z,6.85
2018-09-21T01:35:43.997Z,6.80
2018-09-21T01:36:17.509Z,6.92
2018-09-21T01:36:51.044Z,6.80
2018-09-21T01:37:24.544Z,6.80
2018-09-21T01:37:58.062Z,7.10
2018-09-21T01:38:31.552Z,6.90
2018-09-21T01:39:08.444Z,6.92
2018-09-21T01:39:41.936Z,6.95
2018-09-21T01:40:15.452Z,6.90
2018-09-21T01:40:48.956Z,6.75
2018-09-21T01:41:22.460Z,7.20
2018-09-21T01:41:55.966Z,6.70
2018-09-21T01:42:29.452Z,6.87
2018-09-21T01:43:03.010Z,6.87
2018-09-21T01:43:36.532Z,6.87
2018-09-21T01:44:10.040Z,7.35
2018-09-21T01:44:43.536Z,6.72
2018-09-21T01:45:17.068Z,6.78
2018-09-21T01:45:50.611Z,7.28
2018-09-21T01:46:24.128Z,6.37
2018-09-21T01:46:57.643Z,6.80
2018-09-21T01:47:31.176Z,7.05
2018-09-21T01:48:04.772Z,6.70
2018-09-21T01:48:38.254Z,6.60
2018-09-21T01:49:11.730Z,6.90
2018-09-21T01:49:45.240Z,6.95
2018-09-21T01:50:18.717Z,6.92
2018-09-21T01:50:52.232Z,6.80
2018-09-21T01:51:25.748Z,6.70
2018-09-21T01:51:59.312Z,7.05
2018-09-21T01:52:32.789Z,7.20
2018-09-21T01:53:06.375Z,6.80
2018-09-21T01:53:39.893Z,7.00
2018-09-21T01:54:13.441Z,6.92
2018-09-21T01:54:46.981Z,6.75
2018-09-21T01:55:20.514Z,7.00
2018-09-21T01:55:54.055Z,7.30
2018-09-21T01:56:27.614Z,7.20
2018-09-21T01:57:01.124Z,6.80
2018-09-21T01:57:34.643Z,6.90
2018-09-21T01:58:08.200Z,6.87
2018-09-21T01:58:41.718Z,7.00
2018-09-21T01:59:15.263Z,6.90
2018-09-21T01:59:48.796Z,7.20
2018-09-21T02:00:22.316Z,7.03
2018-09-21T02:00:55.824Z,7.17
2018-09-21T02:01:29.350Z,6.75
2018-09-21T02:02:02.924Z,6.72
2018-09-21T02:02:36.452Z,6.55
2018-09-21T02:03:09.941Z,6.75
2018-09-21T02:03:43.453Z,6.80
2018-09-21T02:04:16.956Z,6.85
2018-09-21T02:04:50.506Z,6.65
2018-09-21T02:05:24.067Z,7.50
2018-09-21T02:05:57.570Z,6.97
2018-09-21T02:06:31.072Z,6.78
2018-09-21T02:07:04.894Z,7.28
2018-09-21T02:07:38.409Z,6.80
2018-09-21T02:08:11.940Z,7.15
2018-09-21T02:08:45.440Z,7.05
2018-09-21T02:09:18.983Z,6.70
2018-09-21T02:09:52.522Z,6.70
2018-09-21T02:10:26.120Z,7.10
2018-09-21T02:10:59.726Z,6.95
2018-09-21T02:11:33.212Z,6.80
2018-09-21T02:12:06.840Z,7.03
2018-09-21T02:12:40.348Z,7.00
2018-09-21T02:13:13.842Z,6.83
2018-09-21T02:13:47.332Z,6.75
2018-09-21T02:14:20.910Z,6.65
2018-09-21T02:14:54.410Z,6.70
2018-09-21T02:15:27.916Z,6.85
2018-09-21T02:16:01.440Z,7.00
2018-09-21T02:16:35.102Z,7.12
2018-09-21T02:17:08.662Z,6.97
2018-09-21T02:17:42.163Z,6.97
2018-09-21T02:18:15.655Z,7.00
2018-09-21T02:18:49.167Z,6.97
2018-09-21T02:19:22.713Z,6.92
2018-09-21T02:19:56.404Z,7.00
2018-09-21T02:20:29.920Z,7.10
2018-09-21T02:21:03.448Z,6.92
2018-09-21T02:21:36.982Z,7.17
2018-09-21T02:22:10.462Z,6.87
2018-09-21T02:22:43.953Z,6.72
2018-09-21T02:23:17.444Z,6.93
2018-09-21T02:23:50.946Z,6.67
2018-09-21T02:24:24.492Z,6.80
2018-09-21T02:24:58.016Z,6.53
2018-09-21T02:25:31.480Z,6.70
2018-09-21T02:26:04.982Z,6.90
2018-09-21T02:26:38.560Z,6.92
2018-09-21T02:27:12.072Z,6.70
2018-09-21T02:27:45.552Z,6.95
2018-09-21T02:28:19.036Z,7.10
2018-09-21T02:28:52.526Z,7.05
2018-09-21T02:29:26.056Z,6.67
2018-09-21T02:29:59.571Z,7.42
2018-09-21T02:30:33.053Z,6.65
2018-09-21T02:31:06.588Z,6.65
2018-09-21T02:31:40.267Z,6.85
2018-09-21T02:32:13.807Z,6.70
2018-09-21T02:32:47.289Z,7.00
2018-09-21T02:33:20.816Z,7.22
2018-09-21T02:33:54.328Z,6.95
2018-09-21T02:34:27.847Z,6.83
2018-09-21T02:35:01.345Z,7.33
2018-09-21T02:35:34.835Z,7.10
2018-09-21T02:36:08.353Z,7.15
2018-09-21T02:36:41.817Z,7.10
2018-09-21T02:37:15.291Z,7.28
2018-09-21T02:37:48.773Z,6.90
2018-09-21T02:38:22.267Z,7.22
2018-09-21T02:38:55.817Z,6.70
2018-09-21T02:39:29.329Z,7.03
2018-09-21T02:40:02.885Z,7.22
2018-09-21T02:40:36.396Z,7.08
2018-09-21T02:41:09.894Z,6.92
2018-09-21T02:41:43.388Z,7.05
2018-09-21T02:42:16.885Z,7.05
2018-09-21T02:42:50.437Z,6.97
2018-09-21T02:43:23.983Z,6.72
2018-09-21T02:43:57.519Z,6.70
2018-09-21T02:44:31.039Z,7.15
2018-09-21T02:45:05.413Z,6.97
2018-09-21T02:45:38.953Z,6.85
2018-09-21T02:46:12.487Z,6.80
2018-09-21T02:46:46.025Z,6.80
2018-09-21T02:47:19.524Z,6.90
2018-09-21T02:47:53.021Z,6.97
2018-09-21T02:48:26.525Z,6.90
2018-09-21T02:49:00.145Z,7.20
2018-09-21T02:49:33.639Z,7.33
2018-09-21T02:50:07.165Z,6.92
2018-09-21T02:50:40.739Z,7.17
2018-09-21T02:51:14.217Z,7.20
2018-09-21T02:51:47.733Z,6.95
2018-09-21T02:52:21.245Z,7.08
2018-09-21T02:52:55.059Z,7.12
2018-09-21T02:53:28.566Z,6.70
2018-09-21T02:54:02.147Z,7.17
2018-09-21T02:54:35.639Z,7.30
2018-09-21T02:55:09.147Z,7.28
2018-09-21T02:55:42.728Z,7.25
2018-09-21T02:56:16.621Z,7.08
2018-09-21T02:56:50.197Z,7.03
2018-09-21T02:57:23.730Z,7.10
2018-09-21T02:57:57.267Z,7.10
2018-09-21T02:58:30.781Z,7.28
2018-09-21T02:59:04.437Z,7.12
2018-09-21T02:59:37.922Z,6.85
2018-09-21T03:00:11.449Z,7.50
2018-09-21T03:00:45.105Z,7.22
2018-09-21T03:01:18.854Z,6.97
2018-09-21T03:01:52.382Z,6.90
2018-09-21T03:02:25.925Z,7.05
2018-09-21T03:02:59.404Z,7.28
2018-09-21T03:03:32.896Z,7.15
2018-09-21T03:04:06.629Z,6.92
2018-09-21T03:04:45.767Z,7.45
2018-09-21T03:05:19.340Z,6.70
2018-09-21T03:05:52.885Z,6.80
2018-09-21T03:06:26.391Z,6.78
2018-09-21T03:06:59.873Z,6.78
2018-09-21T03:07:33.423Z,7.85
2018-09-21T03:08:06.956Z,6.83
2018-09-21T03:08:40.466Z,6.92
2018-09-21T03:09:13.999Z,7.00
2018-09-21T03:09:47.502Z,7.12
2018-09-21T03:10:21.053Z,6.90
2018-09-21T03:10:54.626Z,6.62
2018-09-21T03:11:28.159Z,6.67
2018-09-21T03:12:01.726Z,7.05
2018-09-21T03:12:35.224Z,6.87
2018-09-21T03:13:08.784Z,6.85
2018-09-21T03:13:42.228Z,6.85
2018-09-21T03:14:15.830Z,6.80
2018-09-21T03:14:49.383Z,6.90
2018-09-21T03:15:22.929Z,6.92
2018-09-21T03:15:56.467Z,7.20
2018-09-21T03:16:30.001Z,6.97
2018-09-21T03:17:03.523Z,6.90
2018-09-21T03:17:37.007Z,6.90
2018-09-21T03:18:10.493Z,6.90
2018-09-21T03:18:44.030Z,6.80
2018-09-21T03:19:17.623Z,6.75
2018-09-21T03:19:51.122Z,6.85
2018-09-21T03:20:24.610Z,6.90
2018-09-21T03:20:58.093Z,6.65
2018-09-21T03:21:31.599Z,6.62
2018-09-21T03:22:05.401Z,6.70
2018-09-21T03:22:38.891Z,7.03
2018-09-21T03:23:12.407Z,6.85
2018-09-21T03:23:45.917Z,6.95
2018-09-21T03:24:19.412Z,6.95
2018-09-21T03:24:52.890Z,6.65
2018-09-21T03:25:26.407Z,7.08
2018-09-21T03:25:59.937Z,7.12
2018-09-21T03:26:33.439Z,7.15
2018-09-21T03:27:06.933Z,6.72
2018-09-21T03:27:40.423Z,6.65
2018-09-21T03:28:13.925Z,6.50
2018-09-21T03:28:47.683Z,7.22
2018-09-21T03:29:21.184Z,6.80
2018-09-21T03:29:54.706Z,6.60
2018-09-21T03:30:28.213Z,6.70
2018-09-21T03:31:01.748Z,6.83
2018-09-21T03:31:35.341Z,7.22
2018-09-21T03:32:08.788Z,7.10
2018-09-21T03:32:42.339Z,6.92
2018-09-21T03:33:15.814Z,6.42
2018-09-21T03:33:49.315Z,6.50
2018-09-21T03:34:22.805Z,7.28
2018-09-21T03:34:56.330Z,6.85
2018-09-21T03:35:29.831Z,6.72
2018-09-21T03:36:03.401Z,6.90
2018-09-21T03:36:36.911Z,6.90
2018-09-21T03:37:10.418Z,6.72
2018-09-21T03:37:43.936Z,7.00
2018-09-21T03:38:17.460Z,6.80
2018-09-21T03:38:50.978Z,6.87
2018-09-21T03:39:24.524Z,6.67
2018-09-21T03:39:58.022Z,6.78
2018-09-21T03:40:31.578Z,7.60
2018-09-21T03:41:05.127Z,7.00
2018-09-21T03:41:39.111Z,6.60
2018-09-21T03:42:12.617Z,6.70
2018-09-21T03:42:46.122Z,6.37
2018-09-21T03:43:19.689Z,6.80
2018-09-21T03:43:53.429Z,6.67
2018-09-21T03:44:26.933Z,6.60
2018-09-21T03:45:00.440Z,6.60
2018-09-21T03:45:33.928Z,7.17
2018-09-21T03:46:07.452Z,6.92
2018-09-21T03:46:41.046Z,7.10
2018-09-21T03:47:14.592Z,6.50
2018-09-21T03:47:48.130Z,6.80
2018-09-21T03:48:21.642Z,6.72
2018-09-21T03:48:55.300Z,6.62
2018-09-21T03:49:28.832Z,6.83
2018-09-21T03:50:02.464Z,6.58
2018-09-21T03:50:36.022Z,6.40
2018-09-21T03:51:09.552Z,6.90
2018-09-21T03:51:43.082Z,6.92
2018-09-21T03:52:16.668Z,7.35
2018-09-21T03:52:50.194Z,6.60
2018-09-21T03:53:23.685Z,6.97
2018-09-21T03:53:57.176Z,6.62
2018-09-21T03:54:30.684Z,6.40
2018-09-21T03:55:05.006Z,6.97
2018-09-21T03:55:38.541Z,7.05
2018-09-21T03:56:12.086Z,6.47
2018-09-21T03:56:45.592Z,6.50
2018-09-21T03:57:19.118Z,6.67
2018-09-21T03:57:52.625Z,6.70
2018-09-21T03:58:26.104Z,7.10
2018-09-21T03:58:59.586Z,6.80
2018-09-21T03:59:33.110Z,6.55
2018-09-21T04:00:07.502Z,6.33
2018-09-21T04:00:41.048Z,6.70
2018-09-21T04:01:14.654Z,7.10
2018-09-21T04:01:48.172Z,6.50
2018-09-21T04:02:21.699Z,6.92
2018-09-21T04:02:55.641Z,6.75
2018-09-21T04:03:29.132Z,6.80
2018-09-21T04:04:02.682Z,6.90
2018-09-21T04:04:40.197Z,7.28
2018-09-21T04:05:13.741Z,6.78
2018-09-21T04:05:47.277Z,6.80
2018-09-21T04:06:20.792Z,6.65
2018-09-21T04:06:54.311Z,6.80
2018-09-21T04:07:27.843Z,6.90
2018-09-21T04:08:01.312Z,6.70
2018-09-21T04:08:34.816Z,6.60
2018-09-21T04:09:09.700Z,6.72
2018-09-21T04:09:43.219Z,6.70
2018-09-21T04:10:16.736Z,6.90
2018-09-21T04:10:50.249Z,6.58
2018-09-21T04:11:24.060Z,6.83
2018-09-21T04:11:57.564Z,6.87
2018-09-21T04:12:31.093Z,6.70
2018-09-21T04:13:04.695Z,6.50
2018-09-21T04:13:38.192Z,6.60
2018-09-21T04:14:11.688Z,6.60
2018-09-21T04:14:45.181Z,7.00
2018-09-21T04:15:18.732Z,6.75
2018-09-21T04:15:52.283Z,6.58
2018-09-21T04:16:25.816Z,6.35
2018-09-21T04:16:59.324Z,6.90
2018-09-21T04:17:32.831Z,6.45
2018-09-21T04:18:06.399Z,6.67
2018-09-21T04:18:39.909Z,6.83
2018-09-21T04:19:13.441Z,6.97
2018-09-21T04:19:46.943Z,6.50
2018-09-21T04:20:20.437Z,6.78
2018-09-21T04:20:53.981Z,6.65
2018-09-21T04:21:27.514Z,6.62
2018-09-21T04:22:01.007Z,6.97
2018-09-21T04:22:34.537Z,6.78
2018-09-21T04:23:08.109Z,6.75
2018-09-21T04:23:41.532Z,6.55
2018-09-21T04:24:15.044Z,7.37
2018-09-21T04:24:48.599Z,7.20
2018-09-21T04:25:22.151Z,7.10
2018-09-21T04:25:55.691Z,7.05
2018-09-21T04:26:29.237Z,6.65
2018-09-21T04:27:02.785Z,6.70
2018-09-21T04:27:36.329Z,6.92
2018-09-21T04:28:09.827Z,6.97
2018-09-21T04:28:43.347Z,6.80
2018-09-21T04:29:16.849Z,6.80
2018-09-21T04:29:50.399Z,7.22
2018-09-21T04:30:24.379Z,7.22
2018-09-21T04:30:57.910Z,6.75
2018-09-21T04:31:31.442Z,7.08
2018-09-21T04:32:05.019Z,7.50
2018-09-21T04:32:38.582Z,6.83
2018-09-21T04:33:12.089Z,6.62
2018-09-21T04:33:45.622Z,7.17
2018-09-21T04:34:19.096Z,6.75
2018-09-21T04:34:52.682Z,6.83
2018-09-21T04:35:26.477Z,6.95
2018-09-21T04:36:00.041Z,6.72
2018-09-21T04:36:33.500Z,7.05
2018-09-21T04:37:07.028Z,7.00
2018-09-21T04:37:40.536Z,7.42
2018-09-21T04:38:14.053Z,7.08
2018-09-21T04:38:47.609Z,7.30
2018-09-21T04:39:21.112Z,7.12
2018-09-21T04:39:54.624Z,6.85
2018-09-21T04:40:28.130Z,7.30
2018-09-21T04:41:01.678Z,7.12
2018-09-21T04:41:35.233Z,6.78
2018-09-21T04:42:08.739Z,7.08
2018-09-21T04:42:42.251Z,7.25
2018-09-21T04:43:15.755Z,7.05
2018-09-21T04:43:49.266Z,7.20
2018-09-21T04:44:22.850Z,6.85
2018-09-21T04:44:56.335Z,6.78
2018-09-21T04:45:29.863Z,6.92
2018-09-21T04:46:03.364Z,6.85
2018-09-21T04:46:37.145Z,6.70
2018-09-21T04:47:10.728Z,6.60
2018-09-21T04:47:44.214Z,6.62
2018-09-21T04:48:17.694Z,6.90
2018-09-21T04:48:51.250Z,6.90
2018-09-21T04:49:24.743Z,6.92
2018-09-21T04:49:58.311Z,7.00
2018-09-21T04:50:31.820Z,7.20
2018-09-21T04:51:05.398Z,6.80
2018-09-21T04:51:38.911Z,7.10
2018-09-21T04:52:12.427Z,7.12
2018-09-21T04:52:45.928Z,6.80
2018-09-21T04:53:19.419Z,6.90
2018-09-21T04:53:52.959Z,6.55
2018-09-21T04:54:26.462Z,7.25
2018-09-21T04:54:59.973Z,6.90
2018-09-21T04:55:33.458Z,6.80
2018-09-21T04:56:06.992Z,6.87
2018-09-21T04:56:40.496Z,7.22
2018-09-21T04:57:14.311Z,6.62
2018-09-21T04:57:47.842Z,6.30
2018-09-21T04:58:21.343Z,6.42
2018-09-21T04:58:54.920Z,6.97
2018-09-21T04:59:28.468Z,6.70
2018-09-21T05:00:01.978Z,6.55
2018-09-21T05:00:35.468Z,6.80
2018-09-21T05:01:09.060Z,6.90
2018-09-21T05:01:42.598Z,6.45
2018-09-21T05:02:16.112Z,6.80
2018-09-21T05:02:49.629Z,6.62
2018-09-21T05:03:23.159Z,6.70
2018-09-21T05:03:56.649Z,7.03
2018-09-21T05:04:30.178Z,6.65
2018-09-21T05:05:03.762Z,7.45
2018-09-21T05:05:37.260Z,6.62
2018-09-21T05:06:10.771Z,6.87
2018-09-21T05:06:44.263Z,6.85
2018-09-21T05:07:17.759Z,6.92
2018-09-21T05:07:51.256Z,7.00
2018-09-21T05:08:24.790Z,6.67
2018-09-21T05:08:58.299Z,6.60
2018-09-21T05:09:31.800Z,6.62
2018-09-21T05:10:05.417Z,7.10
2018-09-21T05:10:38.932Z,6.70
2018-09-21T05:11:12.490Z,7.47
2018-09-21T05:11:45.980Z,6.80
2018-09-21T05:12:19.498Z,6.60
2018-09-21T05:12:53.028Z,7.00
2018-09-21T05:13:26.499Z,7.00
2018-09-21T05:14:00.043Z,6.78
2018-09-21T05:14:33.598Z,7.00
2018-09-21T05:15:07.490Z,7.00
2018-09-21T05:15:41.068Z,6.58
2018-09-21T05:16:14.612Z,6.92
2018-09-21T05:16:48.155Z,6.80
2018-09-21T05:17:21.666Z,6.97
2018-09-21T05:17:55.204Z,7.00
2018-09-21T05:18:28.788Z,6.83
2018-09-21T05:19:02.294Z,6.60
2018-09-21T05:19:35.790Z,6.95
2018-09-21T05:20:09.303Z,6.80
2018-09-21T05:20:42.890Z,7.03
2018-09-21T05:21:16.342Z,7.10
2018-09-21T05:21:49.932Z,7.25
2018-09-21T05:22:23.471Z,6.50
2018-09-21T05:22:56.990Z,6.75
2018-09-21T05:23:30.566Z,6.75
2018-09-21T05:24:04.066Z,7.30
2018-09-21T05:24:37.572Z,6.95
2018-09-21T05:25:11.118Z,6.78
2018-09-21T05:25:44.651Z,6.70
2018-09-21T05:26:18.164Z,6.85
2018-09-21T05:26:51.680Z,6.60
2018-09-21T05:27:25.315Z,6.70
2018-09-21T05:27:58.851Z,6.60
2018-09-21T05:28:32.368Z,6.50
2018-09-21T05:29:07.084Z,6.33
2018-09-21T05:29:40.613Z,7.08
2018-09-21T05:30:14.133Z,6.80
2018-09-21T05:30:47.657Z,6.58
2018-09-21T05:31:21.212Z,6.80
2018-09-21T05:31:54.917Z,6.70
2018-09-21T05:32:28.417Z,6.30
2018-09-21T05:33:01.912Z,6.67
2018-09-21T05:33:35.495Z,6.78
2018-09-21T05:34:09.063Z,6.22
2018-09-21T05:34:42.698Z,6.47
2018-09-21T05:35:16.255Z,6.50
2018-09-21T05:35:49.639Z,6.70
2018-09-21T05:36:23.148Z,6.70
2018-09-21T05:36:56.681Z,6.50
2018-09-21T05:37:30.193Z,6.53
2018-09-21T05:38:03.699Z,6.37
2018-09-21T05:38:37.208Z,6.65
2018-09-21T05:39:13.200Z,6.80
2018-09-21T05:39:46.704Z,6.53
2018-09-21T05:40:20.245Z,6.40
2018-09-21T05:40:53.759Z,6.90
2018-09-21T05:41:27.292Z,6.50
2018-09-21T05:42:00.798Z,6.75
2018-09-21T05:42:34.318Z,6.62
2018-09-21T05:43:07.895Z,6.53
2018-09-21T05:43:41.390Z,6.70
2018-09-21T05:44:14.906Z,6.60
2018-09-21T05:44:48.398Z,6.20
2018-09-21T05:45:21.901Z,6.30
2018-09-21T05:45:55.410Z,6.20
2018-09-21T05:46:28.901Z,6.40
2018-09-21T05:47:02.425Z,6.33
2018-09-21T05:47:35.921Z,6.50
2018-09-21T05:48:09.415Z,6.30
2018-09-21T05:48:42.911Z,6.45
2018-09-21T05:49:16.423Z,7.00
2018-09-21T05:49:49.934Z,6.90
2018-09-21T05:50:23.457Z,6.90
2018-09-21T05:50:56.970Z,6.58
2018-09-21T05:51:30.493Z,6.83
2018-09-21T05:52:04.041Z,6.83
2018-09-21T05:52:37.615Z,5.90
2018-09-21T05:53:11.117Z,5.55
2018-09-21T05:53:44.632Z,5.80
2018-09-21T05:54:18.119Z,5.53
2018-09-21T05:54:51.641Z,5.60
2018-09-21T05:55:25.129Z,5.80
2018-09-21T05:55:58.686Z,5.85
2018-09-21T05:56:32.833Z,5.97
2018-09-21T05:57:06.421Z,5.90
2018-09-21T05:57:39.940Z,6.00
2018-09-21T05:58:13.443Z,6.75
2018-09-21T05:58:46.940Z,6.95
2018-09-21T05:59:20.451Z,6.37
2018-09-21T05:59:53.975Z,6.92
2018-09-21T06:00:27.505Z,6.67
2018-09-21T06:01:01.001Z,6.80
2018-09-21T06:01:34.543Z,7.90
2018-09-21T06:02:08.125Z,7.37
2018-09-21T06:02:41.712Z,6.80
2018-09-21T06:03:15.194Z,7.45
2018-09-21T06:03:48.726Z,7.25
2018-09-21T06:04:22.245Z,7.45
2018-09-21T06:05:01.300Z,7.97
2018-09-21T06:05:34.833Z,8.05
2018-09-21T06:06:08.363Z,7.35
2018-09-21T06:06:41.952Z,8.35
2018-09-21T06:07:15.423Z,7.75
2018-09-21T06:07:49.067Z,8.00
2018-09-21T06:08:22.531Z,7.92
2018-09-21T06:08:56.032Z,7.97
2018-09-21T06:09:29.553Z,8.58
2018-09-21T06:10:03.588Z,8.88
2018-09-21T06:10:37.100Z,8.30
2018-09-21T06:11:10.616Z,8.00
2018-09-21T06:11:44.118Z,8.58
2018-09-21T06:12:17.608Z,8.60
2018-09-21T06:12:51.071Z,8.98
2018-09-21T06:13:24.682Z,8.18
2018-09-21T06:13:58.255Z,8.48
2018-09-21T06:14:31.701Z,8.80
2018-09-21T06:15:07.000Z,8.30
2018-09-21T06:15:40.539Z,8.60
2018-09-21T06:16:14.053Z,9.13
2018-09-21T06:16:47.683Z,9.33
2018-09-21T06:17:21.280Z,8.93
2018-09-21T06:17:54.811Z,9.30
2018-09-21T06:18:28.319Z,8.60
2018-09-21T06:19:01.900Z,9.05
2018-09-21T06:19:35.388Z,8.68
2018-09-21T06:20:12.316Z,8.80
2018-09-21T06:20:42.547Z,9.10
2018-09-21T06:21:16.116Z,9.08
2018-09-21T06:21:49.594Z,8.00
2018-09-21T06:22:23.320Z,8.95
2018-09-21T06:22:56.888Z,8.40
2018-09-21T06:23:30.405Z,7.58
2018-09-21T06:24:04.393Z,7.62
2018-09-21T06:24:37.897Z,7.97
2018-09-21T06:25:11.426Z,7.90
2018-09-21T06:25:44.947Z,7.72
2018-09-21T06:26:18.409Z,7.08
2018-09-21T06:26:51.907Z,6.42
2018-09-21T06:27:25.383Z,6.85
2018-09-21T06:27:58.911Z,6.15
2018-09-21T06:28:32.443Z,6.45
2018-09-21T06:29:06.048Z,6.15
2018-09-21T06:29:39.555Z,6.10
2018-09-21T06:30:13.098Z,6.10
2018-09-21T06:30:46.588Z,6.37
2018-09-21T06:31:20.505Z,6.30
2018-09-21T06:31:54.147Z,5.97
2018-09-21T06:32:27.614Z,6.22
2018-09-21T06:33:01.128Z,6.12
2018-09-21T06:33:34.650Z,6.00
2018-09-21T06:34:08.202Z,6.70
2018-09-21T06:34:41.696Z,6.08
2018-09-21T06:35:15.217Z,5.92
2018-09-21T06:35:48.719Z,6.10
2018-09-21T06:36:22.697Z,5.95
2018-09-21T06:36:56.224Z,6.10
2018-09-21T06:37:29.720Z,6.20
2018-09-21T06:38:03.253Z,5.90
2018-09-21T06:38:36.775Z,6.30
2018-09-21T06:39:11.467Z,6.25
2018-09-21T06:39:44.955Z,6.33
2018-09-21T06:40:18.447Z,6.40
2018-09-21T06:40:51.956Z,6.05
2018-09-21T06:41:25.539Z,6.45
2018-09-21T06:41:59.095Z,6.37
2018-09-21T06:42:32.635Z,6.23
2018-09-21T06:43:06.217Z,6.70
2018-09-21T06:43:39.773Z,6.60
2018-09-21T06:44:13.293Z,6.40
2018-09-21T06:44:46.829Z,6.50
2018-09-21T06:45:20.352Z,6.22
2018-09-21T06:45:53.872Z,6.08
2018-09-21T06:46:27.415Z,6.33
2018-09-21T06:47:20.858Z,6.03
2018-09-21T06:47:54.367Z,5.83
2018-09-21T06:48:27.888Z,5.97
2018-09-21T06:49:01.435Z,6.15
2018-09-21T06:49:34.965Z,5.83
2018-09-21T06:50:08.522Z,5.90
2018-09-21T06:50:42.012Z,5.62
2018-09-21T06:51:15.542Z,6.05
2018-09-21T06:51:49.076Z,5.83
2018-09-21T06:52:22.633Z,5.90
2018-09-21T06:52:56.149Z,5.80
2018-09-21T06:53:29.655Z,5.60
2018-09-21T06:54:03.158Z,5.80
2018-09-21T06:54:36.645Z,5.90
2018-09-21T06:55:10.148Z,5.55
2018-09-21T06:55:43.642Z,6.00
2018-09-21T06:56:17.133Z,6.00
2018-09-21T06:56:50.671Z,6.25
2018-09-21T06:57:24.213Z,5.70
2018-09-21T06:57:57.750Z,5.30
2018-09-21T06:58:31.243Z,5.58
2018-09-21T06:59:04.786Z,5.62
2018-09-21T06:59:38.282Z,5.65
2018-09-21T07:00:11.797Z,5.85
2018-09-21T07:00:45.302Z,5.58
2018-09-21T07:01:18.855Z,5.78
2018-09-21T07:01:52.416Z,6.17
2018-09-21T07:02:25.916Z,6.10
2018-09-21T07:02:59.420Z,5.67
2018-09-21T07:03:32.919Z,6.05
2018-09-21T07:04:06.689Z,5.90
2018-09-21T07:04:40.198Z,5.65
2018-09-21T07:05:15.124Z,5.70
2018-09-21T07:05:48.634Z,6.30
2018-09-21T07:06:22.194Z,5.72
2018-09-21T07:06:55.702Z,5.92
2018-09-21T07:07:29.192Z,5.92
2018-09-21T07:08:02.728Z,5.78
2018-09-21T07:11:10.850Z,5.70
2018-09-21T07:11:44.484Z,5.62
2018-09-21T07:12:17.992Z,5.75
2018-09-21T07:12:51.497Z,5.70
2018-09-21T07:13:25.126Z,5.83
2018-09-21T07:13:58.596Z,5.80
2018-09-21T07:14:32.117Z,5.78
2018-09-21T07:15:05.834Z,5.50
2018-09-21T07:15:39.350Z,5.40
2018-09-21T07:16:12.959Z,5.90
2018-09-21T07:16:46.729Z,6.03
2018-09-21T07:17:20.248Z,5.75
2018-09-21T07:17:53.764Z,5.60
2018-09-21T07:18:27.295Z,5.55
2018-09-21T07:19:00.872Z,5.42
2018-09-21T07:19:34.398Z,8.05
2018-09-21T07:20:07.970Z,5.85
2018-09-21T07:20:41.506Z,6.00
2018-09-21T07:21:15.028Z,7.25
2018-09-21T07:21:48.522Z,6.25
2018-09-21T07:22:22.049Z,5.90
2018-09-21T07:22:55.594Z,6.12
2018-09-21T07:23:29.092Z,5.95
2018-09-21T07:24:02.647Z,5.72
2018-09-21T07:24:36.118Z,5.85
2018-09-21T07:25:09.626Z,5.80
2018-09-21T07:25:43.092Z,5.70
2018-09-21T07:26:16.594Z,5.65
2018-09-21T07:26:50.134Z,5.47
2018-09-21T07:27:23.672Z,6.05
2018-09-21T07:27:57.194Z,5.55
2018-09-21T07:28:30.704Z,5.30
2018-09-21T07:29:04.222Z,5.30
2018-09-21T07:29:37.713Z,5.50